sensor_id;sensor_type;location;lat;lon;timestamp;P1;durP1;ratioP1;P2;durP2;ratioP2
27740;SDS011;15134;48.768;9.184;2022-12-07T00:00:16;15.15;;;8.75;;
27740;SDS011;15134;48.768;9.184;2022-12-07T00:02:42;14.80;;;8.57;;
27740;SDS011;15134;48.768;9.184;2022-12-07T00:05:08;13.83;;;7.63;;
27740;SDS011;15134;48.768;9.184;2022-12-07T00:07:33;14.27;;;7.70;;
27740;SDS011;15134;48.768;9.184;2022-12-07T00:10:00;16.23;;;8.93;;
27740;SDS011;15134;48.768;9.184;2022-12-07T00:12:28;14.73;;;8.50;;
27740;SDS011;15134;48.768;9.184;2022-12-07T00:14:54;15.63;;;8.80;;
27740;SDS011;15134;48.768;9.184;2022-12-07T00:17:20;14.60;;;8.83;;
27740;SDS011;15134;48.768;9.184;2022-12-07T00:19:45;13.53;;;8.53;;
27740;SDS011;15134;48.768;9.184;2022-12-07T00:22:12;15.40;;;8.53;;
27740;SDS011;15134;48.768;9.184;2022-12-07T00:24:37;17.33;;;9.15;;
27740;SDS011;15134;48.768;9.184;2022-12-07T00:27:03;15.30;;;8.73;;
27740;SDS011;15134;48.768;9.184;2022-12-07T00:29:29;13.93;;;8.80;;
27740;SDS011;15134;48.768;9.184;2022-12-07T00:31:54;12.40;;;6.43;;
27740;SDS011;15134;48.768;9.184;2022-12-07T00:34:21;16.57;;;9.37;;
27740;SDS011;15134;48.768;9.184;2022-12-07T00:36:47;18.58;;;9.35;;
27740;SDS011;15134;48.768;9.184;2022-12-07T00:39:13;17.17;;;9.77;;
27740;SDS011;15134;48.768;9.184;2022-12-07T00:41:38;15.07;;;9.37;;
27740;SDS011;15134;48.768;9.184;2022-12-07T00:44:04;15.30;;;8.57;;
27740;SDS011;15134;48.768;9.184;2022-12-07T00:46:36;18.00;;;9.45;;
27740;SDS011;15134;48.768;9.184;2022-12-07T00:49:02;18.50;;;10.60;;
27740;SDS011;15134;48.768;9.184;2022-12-07T00:51:28;17.48;;;9.85;;
27740;SDS011;15134;48.768;9.184;2022-12-07T00:53:54;19.00;;;9.83;;
27740;SDS011;15134;48.768;9.184;2022-12-07T00:56:23;18.60;;;10.60;;
27740;SDS011;15134;48.768;9.184;2022-12-07T00:59:10;16.35;;;10.18;;
27740;SDS011;15134;48.768;9.184;2022-12-07T01:01:42;19.60;;;10.52;;
27740;SDS011;15134;48.768;9.184;2022-12-07T01:04:09;18.10;;;10.60;;
27740;SDS011;15134;48.768;9.184;2022-12-07T01:06:34;16.50;;;10.10;;
27740;SDS011;15134;48.768;9.184;2022-12-07T01:09:00;18.07;;;9.97;;
27740;SDS011;15134;48.768;9.184;2022-12-07T01:11:28;19.20;;;10.57;;
27740;SDS011;15134;48.768;9.184;2022-12-07T01:13:55;19.13;;;10.90;;
27740;SDS011;15134;48.768;9.184;2022-12-07T01:16:24;16.95;;;10.20;;
27740;SDS011;15134;48.768;9.184;2022-12-07T01:18:57;18.67;;;9.77;;
27740;SDS011;15134;48.768;9.184;2022-12-07T01:24:03;18.23;;;10.13;;
27740;SDS011;15134;48.768;9.184;2022-12-07T01:26:35;19.13;;;10.57;;
27740;SDS011;15134;48.768;9.184;2022-12-07T01:29:01;19.05;;;10.95;;
27740;SDS011;15134;48.768;9.184;2022-12-07T01:31:28;20.63;;;11.73;;
27740;SDS011;15134;48.768;9.184;2022-12-07T01:33:56;16.67;;;10.18;;
27740;SDS011;15134;48.768;9.184;2022-12-07T01:36:24;18.52;;;10.30;;
27740;SDS011;15134;48.768;9.184;2022-12-07T01:38:51;19.20;;;11.13;;
27740;SDS011;15134;48.768;9.184;2022-12-07T01:41:22;20.83;;;10.85;;
27740;SDS011;15134;48.768;9.184;2022-12-07T01:46:36;19.67;;;11.25;;
27740;SDS011;15134;48.768;9.184;2022-12-07T01:49:28;19.80;;;10.77;;
27740;SDS011;15134;48.768;9.184;2022-12-07T01:51:56;18.23;;;10.60;;
27740;SDS011;15134;48.768;9.184;2022-12-07T01:54:33;17.80;;;9.95;;
27740;SDS011;15134;48.768;9.184;2022-12-07T01:56:59;17.85;;;10.55;;
27740;SDS011;15134;48.768;9.184;2022-12-07T01:59:27;18.33;;;10.00;;
27740;SDS011;15134;48.768;9.184;2022-12-07T02:01:54;19.73;;;11.10;;
27740;SDS011;15134;48.768;9.184;2022-12-07T02:04:21;20.67;;;10.63;;
27740;SDS011;15134;48.768;9.184;2022-12-07T02:09:13;19.60;;;10.98;;
27740;SDS011;15134;48.768;9.184;2022-12-07T02:11:41;19.23;;;10.30;;
27740;SDS011;15134;48.768;9.184;2022-12-07T02:14:07;18.73;;;10.63;;
27740;SDS011;15134;48.768;9.184;2022-12-07T02:22:38;19.65;;;11.57;;
27740;SDS011;15134;48.768;9.184;2022-12-07T02:28:06;17.75;;;11.20;;
27740;SDS011;15134;48.768;9.184;2022-12-07T02:30:33;17.02;;;10.68;;
27740;SDS011;15134;48.768;9.184;2022-12-07T02:33:04;16.70;;;10.02;;
27740;SDS011;15134;48.768;9.184;2022-12-07T02:35:48;19.60;;;11.48;;
27740;SDS011;15134;48.768;9.184;2022-12-07T02:41:10;18.60;;;10.80;;
27740;SDS011;15134;48.768;9.184;2022-12-07T02:43:47;22.92;;;10.55;;
27740;SDS011;15134;48.768;9.184;2022-12-07T02:46:20;19.15;;;11.68;;
27740;SDS011;15134;48.768;9.184;2022-12-07T02:48:48;18.55;;;10.55;;
27740;SDS011;15134;48.768;9.184;2022-12-07T02:51:18;20.85;;;11.40;;
27740;SDS011;15134;48.768;9.184;2022-12-07T02:53:44;19.80;;;11.40;;
27740;SDS011;15134;48.768;9.184;2022-12-07T02:58:49;18.05;;;10.27;;
27740;SDS011;15134;48.768;9.184;2022-12-07T03:07:06;18.42;;;10.27;;
27740;SDS011;15134;48.768;9.184;2022-12-07T03:10:03;17.48;;;9.88;;
27740;SDS011;15134;48.768;9.184;2022-12-07T03:12:44;18.55;;;9.40;;
27740;SDS011;15134;48.768;9.184;2022-12-07T03:15:35;15.60;;;9.18;;
27740;SDS011;15134;48.768;9.184;2022-12-07T03:18:11;17.63;;;9.80;;
27740;SDS011;15134;48.768;9.184;2022-12-07T03:20:40;15.88;;;9.35;;
27740;SDS011;15134;48.768;9.184;2022-12-07T03:23:09;16.65;;;9.40;;
27740;SDS011;15134;48.768;9.184;2022-12-07T03:25:42;18.75;;;9.07;;
27740;SDS011;15134;48.768;9.184;2022-12-07T03:28:12;16.88;;;9.45;;
27740;SDS011;15134;48.768;9.184;2022-12-07T03:33:22;19.58;;;11.13;;
27740;SDS011;15134;48.768;9.184;2022-12-07T03:35:59;14.48;;;8.95;;
27740;SDS011;15134;48.768;9.184;2022-12-07T03:38:45;17.10;;;9.90;;
27740;SDS011;15134;48.768;9.184;2022-12-07T03:41:24;19.40;;;10.38;;
27740;SDS011;15134;48.768;9.184;2022-12-07T03:43:53;17.45;;;9.10;;
27740;SDS011;15134;48.768;9.184;2022-12-07T03:48:57;17.93;;;9.87;;
27740;SDS011;15134;48.768;9.184;2022-12-07T03:51:50;17.63;;;10.32;;
27740;SDS011;15134;48.768;9.184;2022-12-07T03:54:43;17.02;;;9.60;;
27740;SDS011;15134;48.768;9.184;2022-12-07T03:57:13;17.35;;;9.63;;
27740;SDS011;15134;48.768;9.184;2022-12-07T03:59:39;16.97;;;8.00;;
27740;SDS011;15134;48.768;9.184;2022-12-07T04:02:06;17.27;;;9.77;;
27740;SDS011;15134;48.768;9.184;2022-12-07T04:04:36;18.83;;;9.90;;
27740;SDS011;15134;48.768;9.184;2022-12-07T04:07:01;18.53;;;10.10;;
27740;SDS011;15134;48.768;9.184;2022-12-07T04:09:27;16.77;;;9.60;;
27740;SDS011;15134;48.768;9.184;2022-12-07T04:11:53;16.37;;;9.50;;
27740;SDS011;15134;48.768;9.184;2022-12-07T04:14:19;19.63;;;9.83;;
27740;SDS011;15134;48.768;9.184;2022-12-07T04:16:48;17.47;;;9.43;;
27740;SDS011;15134;48.768;9.184;2022-12-07T04:19:16;17.20;;;9.70;;
27740;SDS011;15134;48.768;9.184;2022-12-07T04:21:43;17.23;;;9.43;;
27740;SDS011;15134;48.768;9.184;2022-12-07T04:24:09;16.20;;;10.00;;
27740;SDS011;15134;48.768;9.184;2022-12-07T04:26:36;16.10;;;9.45;;
27740;SDS011;15134;48.768;9.184;2022-12-07T04:29:02;18.30;;;9.43;;
27740;SDS011;15134;48.768;9.184;2022-12-07T04:31:28;15.73;;;8.97;;
27740;SDS011;15134;48.768;9.184;2022-12-07T04:34:00;16.83;;;9.53;;
27740;SDS011;15134;48.768;9.184;2022-12-07T04:36:25;14.32;;;7.95;;
27740;SDS011;15134;48.768;9.184;2022-12-07T04:38:52;14.73;;;8.03;;
27740;SDS011;15134;48.768;9.184;2022-12-07T04:41:19;11.20;;;6.80;;
27740;SDS011;15134;48.768;9.184;2022-12-07T04:44:01;12.95;;;7.22;;
27740;SDS011;15134;48.768;9.184;2022-12-07T04:46:29;13.48;;;6.50;;
27740;SDS011;15134;48.768;9.184;2022-12-07T04:49:01;11.45;;;6.45;;
27740;SDS011;15134;48.768;9.184;2022-12-07T04:51:28;11.53;;;6.40;;
27740;SDS011;15134;48.768;9.184;2022-12-07T04:53:54;10.95;;;5.68;;
27740;SDS011;15134;48.768;9.184;2022-12-07T04:56:21;10.60;;;5.38;;
27740;SDS011;15134;48.768;9.184;2022-12-07T04:58:49;8.93;;;4.72;;
27740;SDS011;15134;48.768;9.184;2022-12-07T05:01:17;9.32;;;5.30;;
27740;SDS011;15134;48.768;9.184;2022-12-07T05:03:46;10.30;;;5.50;;
27740;SDS011;15134;48.768;9.184;2022-12-07T05:06:12;9.85;;;6.18;;
27740;SDS011;15134;48.768;9.184;2022-12-07T05:08:38;9.15;;;4.45;;
27740;SDS011;15134;48.768;9.184;2022-12-07T05:11:04;8.20;;;4.50;;
27740;SDS011;15134;48.768;9.184;2022-12-07T05:13:33;8.23;;;4.38;;
27740;SDS011;15134;48.768;9.184;2022-12-07T05:18:24;8.97;;;4.17;;
27740;SDS011;15134;48.768;9.184;2022-12-07T05:20:50;8.20;;;4.80;;
27740;SDS011;15134;48.768;9.184;2022-12-07T05:23:17;13.95;;;7.40;;
27740;SDS011;15134;48.768;9.184;2022-12-07T05:25:43;11.30;;;6.35;;
27740;SDS011;15134;48.768;9.184;2022-12-07T05:28:09;9.05;;;5.30;;
27740;SDS011;15134;48.768;9.184;2022-12-07T05:30:35;9.80;;;5.13;;
27740;SDS011;15134;48.768;9.184;2022-12-07T05:33:01;11.10;;;5.63;;
27740;SDS011;15134;48.768;9.184;2022-12-07T05:35:28;10.80;;;5.88;;
27740;SDS011;15134;48.768;9.184;2022-12-07T05:37:54;8.93;;;5.27;;
27740;SDS011;15134;48.768;9.184;2022-12-07T05:40:20;10.48;;;5.63;;
27740;SDS011;15134;48.768;9.184;2022-12-07T05:42:50;11.55;;;6.40;;
27740;SDS011;15134;48.768;9.184;2022-12-07T05:45:16;12.77;;;6.67;;
27740;SDS011;15134;48.768;9.184;2022-12-07T05:47:42;10.40;;;6.00;;
27740;SDS011;15134;48.768;9.184;2022-12-07T05:50:07;11.80;;;6.33;;
27740;SDS011;15134;48.768;9.184;2022-12-07T05:52:34;18.30;;;8.13;;
27740;SDS011;15134;48.768;9.184;2022-12-07T05:55:00;13.23;;;6.88;;
27740;SDS011;15134;48.768;9.184;2022-12-07T05:57:26;14.25;;;7.65;;
27740;SDS011;15134;48.768;9.184;2022-12-07T05:59:51;13.93;;;7.73;;
27740;SDS011;15134;48.768;9.184;2022-12-07T06:02:17;14.80;;;8.27;;
27740;SDS011;15134;48.768;9.184;2022-12-07T06:04:44;17.70;;;9.50;;
27740;SDS011;15134;48.768;9.184;2022-12-07T06:07:15;16.05;;;8.02;;
27740;SDS011;15134;48.768;9.184;2022-12-07T06:09:41;20.38;;;10.45;;
27740;SDS011;15134;48.768;9.184;2022-12-07T06:12:09;14.87;;;7.73;;
27740;SDS011;15134;48.768;9.184;2022-12-07T06:14:56;12.35;;;6.95;;
27740;SDS011;15134;48.768;9.184;2022-12-07T06:17:26;11.80;;;7.00;;
27740;SDS011;15134;48.768;9.184;2022-12-07T06:19:52;15.30;;;7.33;;
27740;SDS011;15134;48.768;9.184;2022-12-07T06:22:17;13.53;;;7.53;;
27740;SDS011;15134;48.768;9.184;2022-12-07T06:24:43;14.00;;;7.73;;
27740;SDS011;15134;48.768;9.184;2022-12-07T06:27:09;17.77;;;8.60;;
27740;SDS011;15134;48.768;9.184;2022-12-07T06:29:35;17.87;;;9.00;;
27740;SDS011;15134;48.768;9.184;2022-12-07T06:32:02;12.05;;;6.55;;
27740;SDS011;15134;48.768;9.184;2022-12-07T06:34:28;16.38;;;7.45;;
27740;SDS011;15134;48.768;9.184;2022-12-07T06:36:57;13.07;;;7.00;;
27740;SDS011;15134;48.768;9.184;2022-12-07T06:39:26;14.73;;;7.65;;
27740;SDS011;15134;48.768;9.184;2022-12-07T06:41:53;15.10;;;7.82;;
27740;SDS011;15134;48.768;9.184;2022-12-07T06:44:25;14.85;;;8.18;;
27740;SDS011;15134;48.768;9.184;2022-12-07T06:46:51;13.95;;;7.13;;
27740;SDS011;15134;48.768;9.184;2022-12-07T06:49:17;12.85;;;6.90;;
27740;SDS011;15134;48.768;9.184;2022-12-07T06:51:46;12.67;;;6.83;;
27740;SDS011;15134;48.768;9.184;2022-12-07T06:54:15;13.52;;;7.18;;
27740;SDS011;15134;48.768;9.184;2022-12-07T06:56:40;16.20;;;7.97;;
27740;SDS011;15134;48.768;9.184;2022-12-07T06:59:06;12.60;;;7.20;;
27740;SDS011;15134;48.768;9.184;2022-12-07T07:01:33;12.63;;;6.50;;
27740;SDS011;15134;48.768;9.184;2022-12-07T07:06:26;14.45;;;7.40;;
27740;SDS011;15134;48.768;9.184;2022-12-07T07:08:52;14.47;;;6.70;;
27740;SDS011;15134;48.768;9.184;2022-12-07T07:11:18;14.50;;;6.93;;
27740;SDS011;15134;48.768;9.184;2022-12-07T07:13:44;12.65;;;7.13;;
27740;SDS011;15134;48.768;9.184;2022-12-07T07:16:10;14.32;;;7.15;;
27740;SDS011;15134;48.768;9.184;2022-12-07T07:18:36;13.37;;;7.27;;
27740;SDS011;15134;48.768;9.184;2022-12-07T07:21:02;13.57;;;6.63;;
27740;SDS011;15134;48.768;9.184;2022-12-07T07:23:28;11.40;;;6.32;;
27740;SDS011;15134;48.768;9.184;2022-12-07T07:25:54;16.63;;;6.37;;
27740;SDS011;15134;48.768;9.184;2022-12-07T07:28:21;12.03;;;6.80;;
27740;SDS011;15134;48.768;9.184;2022-12-07T07:30:47;11.50;;;6.38;;
27740;SDS011;15134;48.768;9.184;2022-12-07T07:33:13;12.50;;;5.97;;
27740;SDS011;15134;48.768;9.184;2022-12-07T07:35:38;11.23;;;6.27;;
27740;SDS011;15134;48.768;9.184;2022-12-07T07:38:04;10.20;;;5.87;;
27740;SDS011;15134;48.768;9.184;2022-12-07T07:40:30;13.73;;;7.23;;
27740;SDS011;15134;48.768;9.184;2022-12-07T07:42:56;12.90;;;6.23;;
27740;SDS011;15134;48.768;9.184;2022-12-07T07:45:22;18.17;;;8.47;;
27740;SDS011;15134;48.768;9.184;2022-12-07T07:50:14;45.23;;;18.37;;
27740;SDS011;15134;48.768;9.184;2022-12-07T07:52:41;16.23;;;9.30;;
27740;SDS011;15134;48.768;9.184;2022-12-07T07:55:06;26.17;;;10.07;;
27740;SDS011;15134;48.768;9.184;2022-12-07T08:00:03;15.38;;;8.07;;
27740;SDS011;15134;48.768;9.184;2022-12-07T08:02:37;15.30;;;7.72;;
27740;SDS011;15134;48.768;9.184;2022-12-07T08:05:03;17.23;;;7.73;;
27740;SDS011;15134;48.768;9.184;2022-12-07T08:07:30;17.65;;;7.95;;
27740;SDS011;15134;48.768;9.184;2022-12-07T08:09:55;27.93;;;14.47;;
27740;SDS011;15134;48.768;9.184;2022-12-07T08:12:21;36.27;;;17.80;;
27740;SDS011;15134;48.768;9.184;2022-12-07T08:14:50;56.58;;;23.52;;
27740;SDS011;15134;48.768;9.184;2022-12-07T08:17:16;46.17;;;20.37;;
27740;SDS011;15134;48.768;9.184;2022-12-07T08:19:42;47.10;;;21.80;;
27740;SDS011;15134;48.768;9.184;2022-12-07T08:22:07;14.13;;;8.10;;
27740;SDS011;15134;48.768;9.184;2022-12-07T08:24:34;15.33;;;8.47;;
27740;SDS011;15134;48.768;9.184;2022-12-07T08:27:00;21.40;;;9.75;;
27740;SDS011;15134;48.768;9.184;2022-12-07T08:29:26;13.95;;;6.63;;
27740;SDS011;15134;48.768;9.184;2022-12-07T08:31:52;11.50;;;6.33;;
27740;SDS011;15134;48.768;9.184;2022-12-07T08:34:18;12.55;;;5.80;;
27740;SDS011;15134;48.768;9.184;2022-12-07T08:36:43;12.90;;;6.47;;
27740;SDS011;15134;48.768;9.184;2022-12-07T08:39:09;10.87;;;5.10;;
27740;SDS011;15134;48.768;9.184;2022-12-07T08:41:35;17.97;;;8.03;;
27740;SDS011;15134;48.768;9.184;2022-12-07T08:44:01;15.37;;;7.93;;
27740;SDS011;15134;48.768;9.184;2022-12-07T08:49:21;15.13;;;6.65;;
27740;SDS011;15134;48.768;9.184;2022-12-07T08:51:51;12.45;;;6.10;;
27740;SDS011;15134;48.768;9.184;2022-12-07T08:54:17;15.07;;;8.13;;
27740;SDS011;15134;48.768;9.184;2022-12-07T08:56:46;12.85;;;6.70;;
27740;SDS011;15134;48.768;9.184;2022-12-07T08:59:13;10.85;;;5.78;;
27740;SDS011;15134;48.768;9.184;2022-12-07T09:01:40;16.52;;;7.25;;
27740;SDS011;15134;48.768;9.184;2022-12-07T09:04:06;9.87;;;5.80;;
27740;SDS011;15134;48.768;9.184;2022-12-07T09:06:35;17.27;;;7.07;;
27740;SDS011;15134;48.768;9.184;2022-12-07T09:09:01;12.65;;;5.68;;
27740;SDS011;15134;48.768;9.184;2022-12-07T09:11:27;12.35;;;5.70;;
27740;SDS011;15134;48.768;9.184;2022-12-07T09:13:53;12.23;;;5.87;;
27740;SDS011;15134;48.768;9.184;2022-12-07T09:16:19;11.60;;;6.17;;
27740;SDS011;15134;48.768;9.184;2022-12-07T09:18:45;11.87;;;6.37;;
27740;SDS011;15134;48.768;9.184;2022-12-07T09:21:11;14.40;;;6.10;;
27740;SDS011;15134;48.768;9.184;2022-12-07T09:23:36;11.73;;;5.50;;
27740;SDS011;15134;48.768;9.184;2022-12-07T09:26:03;13.50;;;6.77;;
27740;SDS011;15134;48.768;9.184;2022-12-07T09:28:30;12.20;;;5.57;;
27740;SDS011;15134;48.768;9.184;2022-12-07T09:30:59;12.00;;;6.50;;
27740;SDS011;15134;48.768;9.184;2022-12-07T09:33:25;13.73;;;6.88;;
27740;SDS011;15134;48.768;9.184;2022-12-07T09:35:51;16.17;;;5.77;;
27740;SDS011;15134;48.768;9.184;2022-12-07T09:38:17;14.13;;;7.68;;
27740;SDS011;15134;48.768;9.184;2022-12-07T09:40:51;12.25;;;6.25;;
27740;SDS011;15134;48.768;9.184;2022-12-07T09:43:20;10.88;;;5.57;;
27740;SDS011;15134;48.768;9.184;2022-12-07T09:45:51;12.45;;;5.80;;
27740;SDS011;15134;48.768;9.184;2022-12-07T09:48:32;11.93;;;5.55;;
27740;SDS011;15134;48.768;9.184;2022-12-07T09:51:16;12.90;;;5.80;;
27740;SDS011;15134;48.768;9.184;2022-12-07T09:53:50;11.75;;;5.47;;
27740;SDS011;15134;48.768;9.184;2022-12-07T09:56:21;11.10;;;5.07;;
27740;SDS011;15134;48.768;9.184;2022-12-07T09:58:49;12.30;;;6.90;;
27740;SDS011;15134;48.768;9.184;2022-12-07T10:01:20;9.73;;;5.25;;
27740;SDS011;15134;48.768;9.184;2022-12-07T10:06:17;11.38;;;5.07;;
27740;SDS011;15134;48.768;9.184;2022-12-07T10:08:43;10.47;;;4.87;;
27740;SDS011;15134;48.768;9.184;2022-12-07T10:11:08;10.87;;;6.00;;
27740;SDS011;15134;48.768;9.184;2022-12-07T10:13:37;12.07;;;6.05;;
27740;SDS011;15134;48.768;9.184;2022-12-07T10:19:26;11.85;;;5.97;;
27740;SDS011;15134;48.768;9.184;2022-12-07T10:22:29;12.02;;;5.15;;
27740;SDS011;15134;48.768;9.184;2022-12-07T10:24:48;12.20;;;5.75;;
27740;SDS011;15134;48.768;9.184;2022-12-07T10:27:30;11.00;;;5.63;;
27740;SDS011;15134;48.768;9.184;2022-12-07T10:29:57;14.35;;;6.15;;
27740;SDS011;15134;48.768;9.184;2022-12-07T10:37:49;8.30;;;4.10;;
27740;SDS011;15134;48.768;9.184;2022-12-07T10:40:31;8.25;;;4.22;;
27740;SDS011;15134;48.768;9.184;2022-12-07T10:43:07;10.85;;;4.03;;
27740;SDS011;15134;48.768;9.184;2022-12-07T10:48:18;8.98;;;4.60;;
27740;SDS011;15134;48.768;9.184;2022-12-07T10:53:54;8.63;;;3.85;;
27740;SDS011;15134;48.768;9.184;2022-12-07T11:01:42;7.45;;;3.65;;
27740;SDS011;15134;48.768;9.184;2022-12-07T11:15:04;7.22;;;3.47;;
27740;SDS011;15134;48.768;9.184;2022-12-07T11:18:06;8.02;;;3.88;;
27740;SDS011;15134;48.768;9.184;2022-12-07T11:23:55;8.07;;;3.67;;
27740;SDS011;15134;48.768;9.184;2022-12-07T11:26:34;7.97;;;3.78;;
27740;SDS011;15134;48.768;9.184;2022-12-07T11:32:02;6.40;;;3.10;;
27740;SDS011;15134;48.768;9.184;2022-12-07T11:37:33;34.95;;;13.93;;
27740;SDS011;15134;48.768;9.184;2022-12-07T11:40:25;85.35;;;32.08;;
27740;SDS011;15134;48.768;9.184;2022-12-07T11:43:04;16.88;;;7.65;;
27740;SDS011;15134;48.768;9.184;2022-12-07T11:45:42;15.63;;;7.75;;
27740;SDS011;15134;48.768;9.184;2022-12-07T11:48:22;12.73;;;5.07;;
27740;SDS011;15134;48.768;9.184;2022-12-07T11:50:58;8.10;;;4.00;;
27740;SDS011;15134;48.768;9.184;2022-12-07T11:53:28;10.85;;;6.00;;
27740;SDS011;15134;48.768;9.184;2022-12-07T11:58:44;10.65;;;4.40;;
27740;SDS011;15134;48.768;9.184;2022-12-07T12:03:44;15.13;;;7.93;;
27740;SDS011;15134;48.768;9.184;2022-12-07T12:06:15;9.55;;;5.60;;
27740;SDS011;15134;48.768;9.184;2022-12-07T12:08:49;9.13;;;4.33;;
27740;SDS011;15134;48.768;9.184;2022-12-07T12:12:21;9.10;;;4.30;;
27740;SDS011;15134;48.768;9.184;2022-12-07T12:19:25;10.95;;;5.43;;
27740;SDS011;15134;48.768;9.184;2022-12-07T12:24:44;20.88;;;8.77;;
27740;SDS011;15134;48.768;9.184;2022-12-07T12:27:23;10.30;;;5.32;;
27740;SDS011;15134;48.768;9.184;2022-12-07T12:29:57;11.45;;;5.88;;
27740;SDS011;15134;48.768;9.184;2022-12-07T12:32:41;12.38;;;6.25;;
27740;SDS011;15134;48.768;9.184;2022-12-07T12:44:38;9.95;;;6.10;;
27740;SDS011;15134;48.768;9.184;2022-12-07T12:46:55;14.40;;;7.68;;
27740;SDS011;15134;48.768;9.184;2022-12-07T12:51:49;10.70;;;5.73;;
27740;SDS011;15134;48.768;9.184;2022-12-07T12:54:22;13.13;;;6.35;;
27740;SDS011;15134;48.768;9.184;2022-12-07T12:59:31;9.20;;;5.07;;
27740;SDS011;15134;48.768;9.184;2022-12-07T13:04:51;17.85;;;8.65;;
27740;SDS011;15134;48.768;9.184;2022-12-07T13:12:55;14.73;;;7.63;;
27740;SDS011;15134;48.768;9.184;2022-12-07T13:20:56;13.00;;;6.63;;
27740;SDS011;15134;48.768;9.184;2022-12-07T13:26:31;14.23;;;7.03;;
27740;SDS011;15134;48.768;9.184;2022-12-07T13:34:05;13.82;;;7.22;;
27740;SDS011;15134;48.768;9.184;2022-12-07T13:36:51;14.27;;;5.47;;
27740;SDS011;15134;48.768;9.184;2022-12-07T13:39:21;12.93;;;6.53;;
27740;SDS011;15134;48.768;9.184;2022-12-07T13:41:57;11.32;;;5.40;;
27740;SDS011;15134;48.768;9.184;2022-12-07T13:44:33;10.35;;;5.50;;
27740;SDS011;15134;48.768;9.184;2022-12-07T13:47:14;12.75;;;6.95;;
27740;SDS011;15134;48.768;9.184;2022-12-07T13:49:55;14.18;;;5.90;;
27740;SDS011;15134;48.768;9.184;2022-12-07T13:52:23;8.73;;;4.78;;
27740;SDS011;15134;48.768;9.184;2022-12-07T13:57:21;11.33;;;6.00;;
27740;SDS011;15134;48.768;9.184;2022-12-07T13:59:49;10.18;;;5.53;;
27740;SDS011;15134;48.768;9.184;2022-12-07T14:02:33;10.57;;;4.82;;
27740;SDS011;15134;48.768;9.184;2022-12-07T14:05:07;9.75;;;5.05;;
27740;SDS011;15134;48.768;9.184;2022-12-07T14:07:33;10.45;;;5.32;;
27740;SDS011;15134;48.768;9.184;2022-12-07T14:10:23;11.50;;;4.65;;
27740;SDS011;15134;48.768;9.184;2022-12-07T14:12:54;10.18;;;5.32;;
27740;SDS011;15134;48.768;9.184;2022-12-07T14:15:21;12.23;;;6.35;;
27740;SDS011;15134;48.768;9.184;2022-12-07T14:17:56;10.73;;;5.00;;
27740;SDS011;15134;48.768;9.184;2022-12-07T14:22:58;11.35;;;5.68;;
27740;SDS011;15134;48.768;9.184;2022-12-07T14:25:25;13.15;;;7.50;;
27740;SDS011;15134;48.768;9.184;2022-12-07T14:27:55;12.07;;;6.30;;
27740;SDS011;15134;48.768;9.184;2022-12-07T14:30:25;11.65;;;5.47;;
27740;SDS011;15134;48.768;9.184;2022-12-07T14:32:57;12.68;;;5.82;;
27740;SDS011;15134;48.768;9.184;2022-12-07T14:35:30;10.23;;;5.45;;
27740;SDS011;15134;48.768;9.184;2022-12-07T14:38:03;9.05;;;5.00;;
27740;SDS011;15134;48.768;9.184;2022-12-07T14:40:29;10.20;;;5.18;;
27740;SDS011;15134;48.768;9.184;2022-12-07T14:43:11;12.15;;;6.03;;
27740;SDS011;15134;48.768;9.184;2022-12-07T14:45:40;12.82;;;6.55;;
27740;SDS011;15134;48.768;9.184;2022-12-07T14:50:35;9.73;;;5.40;;
27740;SDS011;15134;48.768;9.184;2022-12-07T14:55:39;8.90;;;5.05;;
27740;SDS011;15134;48.768;9.184;2022-12-07T14:58:05;11.48;;;5.00;;
27740;SDS011;15134;48.768;9.184;2022-12-07T15:00:31;7.47;;;4.73;;
27740;SDS011;15134;48.768;9.184;2022-12-07T15:05:24;11.10;;;5.95;;
27740;SDS011;15134;48.768;9.184;2022-12-07T15:07:49;9.23;;;5.10;;
27740;SDS011;15134;48.768;9.184;2022-12-07T15:10:20;9.75;;;5.20;;
27740;SDS011;15134;48.768;9.184;2022-12-07T15:12:55;12.27;;;6.13;;
27740;SDS011;15134;48.768;9.184;2022-12-07T15:15:41;9.85;;;5.63;;
27740;SDS011;15134;48.768;9.184;2022-12-07T15:18:07;14.50;;;6.13;;
27740;SDS011;15134;48.768;9.184;2022-12-07T15:20:33;10.10;;;6.30;;
27740;SDS011;15134;48.768;9.184;2022-12-07T15:22:58;11.60;;;6.17;;
27740;SDS011;15134;48.768;9.184;2022-12-07T15:25:24;11.07;;;6.07;;
27740;SDS011;15134;48.768;9.184;2022-12-07T15:27:50;10.73;;;5.97;;
27740;SDS011;15134;48.768;9.184;2022-12-07T15:30:15;12.13;;;5.80;;
27740;SDS011;15134;48.768;9.184;2022-12-07T15:32:41;10.17;;;5.57;;
27740;SDS011;15134;48.768;9.184;2022-12-07T15:35:14;11.10;;;5.53;;
27740;SDS011;15134;48.768;9.184;2022-12-07T15:37:39;10.50;;;5.13;;
27740;SDS011;15134;48.768;9.184;2022-12-07T15:40:05;11.10;;;6.03;;
27740;SDS011;15134;48.768;9.184;2022-12-07T15:42:32;12.88;;;5.65;;
27740;SDS011;15134;48.768;9.184;2022-12-07T15:45:00;11.00;;;5.37;;
27740;SDS011;15134;48.768;9.184;2022-12-07T15:47:29;12.38;;;5.55;;
27740;SDS011;15134;48.768;9.184;2022-12-07T15:52:21;12.63;;;6.37;;
27740;SDS011;15134;48.768;9.184;2022-12-07T15:54:48;10.63;;;6.10;;
27740;SDS011;15134;48.768;9.184;2022-12-07T15:57:14;11.52;;;5.93;;
27740;SDS011;15134;48.768;9.184;2022-12-07T15:59:39;10.90;;;6.03;;
27740;SDS011;15134;48.768;9.184;2022-12-07T16:02:05;11.00;;;5.87;;
27740;SDS011;15134;48.768;9.184;2022-12-07T16:04:32;14.65;;;7.88;;
27740;SDS011;15134;48.768;9.184;2022-12-07T16:06:58;12.13;;;7.40;;
27740;SDS011;15134;48.768;9.184;2022-12-07T16:09:24;11.90;;;6.73;;
27740;SDS011;15134;48.768;9.184;2022-12-07T16:11:50;9.55;;;5.20;;
27740;SDS011;15134;48.768;9.184;2022-12-07T16:14:17;11.15;;;6.28;;
27740;SDS011;15134;48.768;9.184;2022-12-07T16:16:43;16.77;;;7.47;;
27740;SDS011;15134;48.768;9.184;2022-12-07T16:19:08;13.33;;;6.70;;
27740;SDS011;15134;48.768;9.184;2022-12-07T16:21:37;12.80;;;6.90;;
27740;SDS011;15134;48.768;9.184;2022-12-07T16:24:03;14.33;;;7.50;;
27740;SDS011;15134;48.768;9.184;2022-12-07T16:26:30;12.25;;;6.82;;
27740;SDS011;15134;48.768;9.184;2022-12-07T16:28:56;13.70;;;7.07;;
27740;SDS011;15134;48.768;9.184;2022-12-07T16:31:26;11.35;;;6.50;;
27740;SDS011;15134;48.768;9.184;2022-12-07T16:33:53;14.68;;;8.45;;
27740;SDS011;15134;48.768;9.184;2022-12-07T16:36:20;14.80;;;7.88;;
27740;SDS011;15134;48.768;9.184;2022-12-07T16:38:47;12.23;;;7.15;;
27740;SDS011;15134;48.768;9.184;2022-12-07T16:41:13;15.73;;;8.98;;
27740;SDS011;15134;48.768;9.184;2022-12-07T16:43:39;14.07;;;7.67;;
27740;SDS011;15134;48.768;9.184;2022-12-07T16:46:05;14.93;;;8.27;;
27740;SDS011;15134;48.768;9.184;2022-12-07T16:48:35;15.70;;;8.10;;
27740;SDS011;15134;48.768;9.184;2022-12-07T16:51:03;15.88;;;8.48;;
27740;SDS011;15134;48.768;9.184;2022-12-07T16:53:35;15.20;;;8.55;;
27740;SDS011;15134;48.768;9.184;2022-12-07T16:56:02;17.77;;;9.98;;
27740;SDS011;15134;48.768;9.184;2022-12-07T16:58:28;16.57;;;8.60;;
27740;SDS011;15134;48.768;9.184;2022-12-07T17:00:57;15.73;;;9.20;;
27740;SDS011;15134;48.768;9.184;2022-12-07T17:03:22;15.85;;;9.20;;
27740;SDS011;15134;48.768;9.184;2022-12-07T17:05:48;24.73;;;12.77;;
27740;SDS011;15134;48.768;9.184;2022-12-07T17:08:14;27.07;;;13.37;;
27740;SDS011;15134;48.768;9.184;2022-12-07T17:10:41;33.08;;;18.25;;
27740;SDS011;15134;48.768;9.184;2022-12-07T17:13:13;26.05;;;13.38;;
27740;SDS011;15134;48.768;9.184;2022-12-07T17:16:01;23.65;;;12.40;;
27740;SDS011;15134;48.768;9.184;2022-12-07T17:18:29;18.70;;;10.38;;